sensor_id;sensor_type;location;lat;lon;timestamp;P1;durP1;ratioP1;P2;durP2;ratioP2
39214;SDS011;24932;51.746;14.334;2022-11-20T00:00:40;16.63;;;8.53;;
39214;SDS011;24932;51.746;14.334;2022-11-20T00:04:40;22.43;;;10.27;;
39214;SDS011;24932;51.746;14.334;2022-11-20T00:08:40;18.0;;;10.37;;
39214;SDS011;24932;51.746;14.334;2022-11-20T00:12:40;18.0;;;10.3;;
39214;SDS011;24932;51.746;14.334;2022-11-20T00:16:40;19.17;;;10.2;;
39214;SDS011;24932;51.746;14.334;2022-11-20T00:20:40;19.17;;;9.43;;
39214;SDS011;24932;51.746;14.334;2022-11-20T00:24:43;17.37;;;10.13;;
39214;SDS011;24932;51.746;14.334;2022-11-20T00:28:41;21.47;;;10.0;;
39214;SDS011;24932;51.746;14.334;2022-11-20T00:32:40;21.03;;;11.23;;
39214;SDS011;24932;51.746;14.334;2022-11-20T00:36:40;18.17;;;9.17;;
39214;SDS011;24932;51.746;14.334;2022-11-20T00:40:40;16.7;;;9.53;;
39214;SDS011;24932;51.746;14.334;2022-11-20T00:44:40;21.17;;;9.53;;
39214;SDS011;24932;51.746;14.334;2022-11-20T00:48:40;18.47;;;10.5;;
39214;SDS011;24932;51.746;14.334;2022-11-20T00:52:40;17.6;;;10.43;;
39214;SDS011;24932;51.746;14.334;2022-11-20T00:56:40;20.23;;;10.3;;
39214;SDS011;24932;51.746;14.334;2022-11-20T01:00:40;19.93;;;10.17;;
39214;SDS011;24932;51.746;14.334;2022-11-20T01:04:40;21.73;;;11.13;;
39214;SDS011;24932;51.746;14.334;2022-11-20T01:08:41;19.67;;;9.93;;
39214;SDS011;24932;51.746;14.334;2022-11-20T01:12:40;18.23;;;9.5;;
39214;SDS011;24932;51.746;14.334;2022-11-20T01:16:41;22.53;;;10.0;;
39214;SDS011;24932;51.746;14.334;2022-11-20T01:20:40;21.1;;;11.07;;
39214;SDS011;24932;51.746;14.334;2022-11-20T01:24:40;16.53;;;9.67;;
39214;SDS011;24932;51.746;14.334;2022-11-20T01:28:40;19.23;;;10.73;;
39214;SDS011;24932;51.746;14.334;2022-11-20T01:32:41;24.13;;;10.23;;
39214;SDS011;24932;51.746;14.334;2022-11-20T01:36:40;19.73;;;10.3;;
39214;SDS011;24932;51.746;14.334;2022-11-20T01:40:39;19.57;;;9.63;;
39214;SDS011;24932;51.746;14.334;2022-11-20T01:44:43;21.23;;;11.0;;
39214;SDS011;24932;51.746;14.334;2022-11-20T01:48:42;19.6;;;10.4;;
39214;SDS011;24932;51.746;14.334;2022-11-20T01:52:41;18.0;;;10.07;;
39214;SDS011;24932;51.746;14.334;2022-11-20T01:56:40;22.43;;;10.37;;
39214;SDS011;24932;51.746;14.334;2022-11-20T02:00:40;18.07;;;10.63;;
39214;SDS011;24932;51.746;14.334;2022-11-20T02:04:41;21.3;;;11.1;;
39214;SDS011;24932;51.746;14.334;2022-11-20T02:08:41;17.8;;;10.23;;
39214;SDS011;24932;51.746;14.334;2022-11-20T02:12:40;19.7;;;10.97;;
39214;SDS011;24932;51.746;14.334;2022-11-20T02:16:44;24.3;;;12.23;;
39214;SDS011;24932;51.746;14.334;2022-11-20T02:20:41;22.03;;;11.1;;
39214;SDS011;24932;51.746;14.334;2022-11-20T02:24:40;22.03;;;11.1;;
39214;SDS011;24932;51.746;14.334;2022-11-20T02:28:40;25.33;;;12.27;;
39214;SDS011;24932;51.746;14.334;2022-11-20T02:32:40;27.3;;;11.63;;
39214;SDS011;24932;51.746;14.334;2022-11-20T02:36:40;23.1;;;12.57;;
39214;SDS011;24932;51.746;14.334;2022-11-20T02:40:40;27.87;;;13.33;;
39214;SDS011;24932;51.746;14.334;2022-11-20T02:44:39;23.27;;;11.3;;
39214;SDS011;24932;51.746;14.334;2022-11-20T02:48:40;23.67;;;12.1;;
39214;SDS011;24932;51.746;14.334;2022-11-20T02:52:40;29.17;;;13.17;;
39214;SDS011;24932;51.746;14.334;2022-11-20T02:56:40;23.97;;;11.67;;
39214;SDS011;24932;51.746;14.334;2022-11-20T03:00:40;27.23;;;13.3;;
39214;SDS011;24932;51.746;14.334;2022-11-20T03:04:40;30.27;;;14.4;;
39214;SDS011;24932;51.746;14.334;2022-11-20T03:08:41;27.17;;;12.57;;
39214;SDS011;24932;51.746;14.334;2022-11-20T03:12:40;29.37;;;13.63;;
39214;SDS011;24932;51.746;14.334;2022-11-20T03:16:40;23.23;;;13.5;;
39214;SDS011;24932;51.746;14.334;2022-11-20T03:20:40;29.87;;;11.87;;
39214;SDS011;24932;51.746;14.334;2022-11-20T03:24:40;32.23;;;13.9;;
39214;SDS011;24932;51.746;14.334;2022-11-20T03:28:41;27.7;;;13.97;;
39214;SDS011;24932;51.746;14.334;2022-11-20T03:32:48;28.07;;;13.37;;
39214;SDS011;24932;51.746;14.334;2022-11-20T03:36:41;20.7;;;10.93;;
39214;SDS011;24932;51.746;14.334;2022-11-20T03:40:40;28.4;;;15.33;;
39214;SDS011;24932;51.746;14.334;2022-11-20T03:44:40;31.2;;;14.6;;
39214;SDS011;24932;51.746;14.334;2022-11-20T03:48:39;31.5;;;15.67;;
39214;SDS011;24932;51.746;14.334;2022-11-20T03:52:40;28.57;;;14.57;;
39214;SDS011;24932;51.746;14.334;2022-11-20T03:56:40;31.93;;;14.43;;
39214;SDS011;24932;51.746;14.334;2022-11-20T04:00:40;33.27;;;15.1;;
39214;SDS011;24932;51.746;14.334;2022-11-20T04:04:40;35.53;;;16.9;;
39214;SDS011;24932;51.746;14.334;2022-11-20T04:08:41;37.6;;;15.23;;
39214;SDS011;24932;51.746;14.334;2022-11-20T04:12:41;33.47;;;15.63;;
39214;SDS011;24932;51.746;14.334;2022-11-20T04:16:40;30.0;;;14.97;;
39214;SDS011;24932;51.746;14.334;2022-11-20T04:20:40;40.7;;;17.0;;
39214;SDS011;24932;51.746;14.334;2022-11-20T04:24:40;29.1;;;13.8;;
39214;SDS011;24932;51.746;14.334;2022-11-20T04:28:41;33.43;;;15.97;;
39214;SDS011;24932;51.746;14.334;2022-11-20T04:32:40;30.5;;;15.23;;
39214;SDS011;24932;51.746;14.334;2022-11-20T04:36:39;32.63;;;15.4;;
39214;SDS011;24932;51.746;14.334;2022-11-20T04:40:41;30.23;;;13.4;;
39214;SDS011;24932;51.746;14.334;2022-11-20T04:44:40;35.23;;;17.37;;
39214;SDS011;24932;51.746;14.334;2022-11-20T04:48:40;31.93;;;14.53;;
39214;SDS011;24932;51.746;14.334;2022-11-20T04:52:39;27.87;;;13.53;;
39214;SDS011;24932;51.746;14.334;2022-11-20T04:56:40;30.83;;;13.4;;
39214;SDS011;24932;51.746;14.334;2022-11-20T05:00:42;37.77;;;14.53;;
39214;SDS011;24932;51.746;14.334;2022-11-20T05:04:40;34.23;;;14.43;;
39214;SDS011;24932;51.746;14.334;2022-11-20T05:08:40;29.97;;;13.67;;
39214;SDS011;24932;51.746;14.334;2022-11-20T05:12:40;27.0;;;13.37;;
39214;SDS011;24932;51.746;14.334;2022-11-20T05:16:40;30.6;;;13.93;;
39214;SDS011;24932;51.746;14.334;2022-11-20T05:20:40;27.87;;;12.6;;
39214;SDS011;24932;51.746;14.334;2022-11-20T05:24:40;27.0;;;13.47;;
39214;SDS011;24932;51.746;14.334;2022-11-20T05:28:40;29.03;;;13.6;;
39214;SDS011;24932;51.746;14.334;2022-11-20T05:32:40;31.33;;;13.7;;
39214;SDS011;24932;51.746;14.334;2022-11-20T05:36:40;30.37;;;13.67;;
39214;SDS011;24932;51.746;14.334;2022-11-20T05:40:40;30.77;;;14.63;;
39214;SDS011;24932;51.746;14.334;2022-11-20T05:44:40;31.93;;;14.63;;
39214;SDS011;24932;51.746;14.334;2022-11-20T05:48:41;27.77;;;12.9;;
39214;SDS011;24932;51.746;14.334;2022-11-20T05:52:40;28.87;;;13.13;;
39214;SDS011;24932;51.746;14.334;2022-11-20T05:56:41;33.33;;;15.13;;
39214;SDS011;24932;51.746;14.334;2022-11-20T06:00:40;36.97;;;14.37;;
39214;SDS011;24932;51.746;14.334;2022-11-20T06:04:40;31.73;;;14.27;;
39214;SDS011;24932;51.746;14.334;2022-11-20T06:08:40;34.47;;;14.73;;
39214;SDS011;24932;51.746;14.334;2022-11-20T06:12:41;34.27;;;14.93;;
39214;SDS011;24932;51.746;14.334;2022-11-20T06:16:41;30.83;;;13.77;;
39214;SDS011;24932;51.746;14.334;2022-11-20T06:20:42;30.97;;;14.63;;
39214;SDS011;24932;51.746;14.334;2022-11-20T06:24:40;31.37;;;14.1;;
39214;SDS011;24932;51.746;14.334;2022-11-20T06:28:41;29.23;;;13.3;;
39214;SDS011;24932;51.746;14.334;2022-11-20T06:32:40;29.8;;;14.2;;
39214;SDS011;24932;51.746;14.334;2022-11-20T06:36:40;27.33;;;13.43;;
39214;SDS011;24932;51.746;14.334;2022-11-20T06:40:41;36.7;;;14.23;;
39214;SDS011;24932;51.746;14.334;2022-11-20T06:44:40;27.27;;;14.47;;
39214;SDS011;24932;51.746;14.334;2022-11-20T06:48:40;29.87;;;14.03;;
39214;SDS011;24932;51.746;14.334;2022-11-20T06:52:44;29.87;;;15.03;;
39214;SDS011;24932;51.746;14.334;2022-11-20T06:56:40;35.3;;;15.9;;
39214;SDS011;24932;51.746;14.334;2022-11-20T07:00:40;36.6;;;16.5;;
39214;SDS011;24932;51.746;14.334;2022-11-20T07:04:40;38.1;;;17.03;;
39214;SDS011;24932;51.746;14.334;2022-11-20T07:08:41;33.17;;;15.3;;
39214;SDS011;24932;51.746;14.334;2022-11-20T07:12:40;31.03;;;15.0;;
39214;SDS011;24932;51.746;14.334;2022-11-20T07:16:40;29.87;;;15.1;;
39214;SDS011;24932;51.746;14.334;2022-11-20T07:20:40;32.37;;;15.03;;
39214;SDS011;24932;51.746;14.334;2022-11-20T07:24:46;32.17;;;15.37;;
39214;SDS011;24932;51.746;14.334;2022-11-20T07:28:43;32.87;;;15.3;;
39214;SDS011;24932;51.746;14.334;2022-11-20T07:32:41;30.77;;;14.53;;
39214;SDS011;24932;51.746;14.334;2022-11-20T07:36:40;32.97;;;14.07;;
39214;SDS011;24932;51.746;14.334;2022-11-20T07:40:40;27.07;;;13.3;;
39214;SDS011;24932;51.746;14.334;2022-11-20T07:44:40;26.57;;;12.3;;
39214;SDS011;24932;51.746;14.334;2022-11-20T07:48:40;32.67;;;14.53;;
39214;SDS011;24932;51.746;14.334;2022-11-20T07:52:41;33.43;;;14.5;;
39214;SDS011;24932;51.746;14.334;2022-11-20T07:56:40;31.43;;;14.47;;
39214;SDS011;24932;51.746;14.334;2022-11-20T08:00:41;24.67;;;12.13;;
39214;SDS011;24932;51.746;14.334;2022-11-20T08:04:40;30.07;;;15.13;;
39214;SDS011;24932;51.746;14.334;2022-11-20T08:08:43;27.17;;;14.03;;
39214;SDS011;24932;51.746;14.334;2022-11-20T08:12:43;34.63;;;14.2;;
39214;SDS011;24932;51.746;14.334;2022-11-20T08:16:41;27.3;;;13.73;;
39214;SDS011;24932;51.746;14.334;2022-11-20T08:20:41;29.17;;;14.17;;
39214;SDS011;24932;51.746;14.334;2022-11-20T08:24:40;27.03;;;13.73;;
39214;SDS011;24932;51.746;14.334;2022-11-20T08:28:40;32.07;;;15.6;;
39214;SDS011;24932;51.746;14.334;2022-11-20T08:32:40;26.97;;;12.9;;
39214;SDS011;24932;51.746;14.334;2022-11-20T08:36:40;30.3;;;14.23;;
39214;SDS011;24932;51.746;14.334;2022-11-20T08:40:40;27.93;;;13.6;;
39214;SDS011;24932;51.746;14.334;2022-11-20T08:44:40;30.33;;;14.53;;
39214;SDS011;24932;51.746;14.334;2022-11-20T08:48:40;26.47;;;13.87;;
39214;SDS011;24932;51.746;14.334;2022-11-20T08:52:40;35.17;;;13.63;;
39214;SDS011;24932;51.746;14.334;2022-11-20T08:56:40;33.1;;;14.83;;
39214;SDS011;24932;51.746;14.334;2022-11-20T09:00:41;26.63;;;13.43;;
39214;SDS011;24932;51.746;14.334;2022-11-20T09:04:40;20.87;;;9.0;;
39214;SDS011;24932;51.746;14.334;2022-11-20T09:08:39;23.47;;;12.07;;
39214;SDS011;24932;51.746;14.334;2022-11-20T09:12:40;20.27;;;10.4;;
39214;SDS011;24932;51.746;14.334;2022-11-20T09:16:40;22.57;;;11.37;;
39214;SDS011;24932;51.746;14.334;2022-11-20T09:20:40;26.7;;;12.9;;
39214;SDS011;24932;51.746;14.334;2022-11-20T09:24:40;22.67;;;10.4;;
39214;SDS011;24932;51.746;14.334;2022-11-20T09:28:39;23.83;;;12.13;;
39214;SDS011;24932;51.746;14.334;2022-11-20T09:32:41;28.33;;;12.77;;
39214;SDS011;24932;51.746;14.334;2022-11-20T09:36:40;27.57;;;12.67;;
39214;SDS011;24932;51.746;14.334;2022-11-20T09:40:43;21.1;;;10.03;;
39214;SDS011;24932;51.746;14.334;2022-11-20T09:44:47;23.8;;;10.53;;
39214;SDS011;24932;51.746;14.334;2022-11-20T09:48:43;32.17;;;11.47;;
39214;SDS011;24932;51.746;14.334;2022-11-20T09:52:42;21.5;;;11.27;;
39214;SDS011;24932;51.746;14.334;2022-11-20T09:56:41;22.77;;;10.83;;
39214;SDS011;24932;51.746;14.334;2022-11-20T10:00:41;21.03;;;9.93;;
39214;SDS011;24932;51.746;14.334;2022-11-20T10:04:42;21.6;;;11.03;;
39214;SDS011;24932;51.746;14.334;2022-11-20T10:08:41;26.4;;;11.1;;
39214;SDS011;24932;51.746;14.334;2022-11-20T10:12:44;22.87;;;11.17;;
39214;SDS011;24932;51.746;14.334;2022-11-20T10:16:42;22.8;;;11.37;;
39214;SDS011;24932;51.746;14.334;2022-11-20T10:20:42;20.5;;;9.83;;
39214;SDS011;24932;51.746;14.334;2022-11-20T10:24:43;17.63;;;9.8;;
39214;SDS011;24932;51.746;14.334;2022-11-20T10:28:44;19.93;;;9.67;;
39214;SDS011;24932;51.746;14.334;2022-11-20T10:32:41;22.53;;;10.43;;
39214;SDS011;24932;51.746;14.334;2022-11-20T10:36:40;16.97;;;9.13;;
39214;SDS011;24932;51.746;14.334;2022-11-20T10:40:41;15.17;;;7.27;;
39214;SDS011;24932;51.746;14.334;2022-11-20T10:44:41;19.37;;;9.4;;
39214;SDS011;24932;51.746;14.334;2022-11-20T10:48:40;21.17;;;9.8;;
39214;SDS011;24932;51.746;14.334;2022-11-20T10:52:42;18.8;;;10.03;;
39214;SDS011;24932;51.746;14.334;2022-11-20T10:56:45;12.33;;;6.5;;
39214;SDS011;24932;51.746;14.334;2022-11-20T11:00:40;18.0;;;8.8;;
39214;SDS011;24932;51.746;14.334;2022-11-20T11:04:42;14.3;;;8.53;;
39214;SDS011;24932;51.746;14.334;2022-11-20T11:08:39;17.1;;;9.1;;
39214;SDS011;24932;51.746;14.334;2022-11-20T11:12:42;19.33;;;10.17;;
39214;SDS011;24932;51.746;14.334;2022-11-20T11:16:48;15.03;;;8.17;;
39214;SDS011;24932;51.746;14.334;2022-11-20T11:20:40;18.97;;;9.77;;
39214;SDS011;24932;51.746;14.334;2022-11-20T11:24:50;20.87;;;9.73;;
39214;SDS011;24932;51.746;14.334;2022-11-20T11:28:40;25.5;;;5.93;;
39214;SDS011;24932;51.746;14.334;2022-11-20T11:32:40;24.73;;;11.27;;
39214;SDS011;24932;51.746;14.334;2022-11-20T11:36:40;20.67;;;10.67;;
39214;SDS011;24932;51.746;14.334;2022-11-20T11:40:41;23.4;;;10.2;;
39214;SDS011;24932;51.746;14.334;2022-11-20T11:44:43;20.3;;;9.57;;
39214;SDS011;24932;51.746;14.334;2022-11-20T11:48:40;25.53;;;12.97;;
39214;SDS011;24932;51.746;14.334;2022-11-20T11:52:42;17.37;;;9.1;;
39214;SDS011;24932;51.746;14.334;2022-11-20T11:56:40;20.83;;;9.9;;
39214;SDS011;24932;51.746;14.334;2022-11-20T12:00:41;18.33;;;8.83;;
39214;SDS011;24932;51.746;14.334;2022-11-20T12:04:42;16.0;;;9.33;;
39214;SDS011;24932;51.746;14.334;2022-11-20T12:08:43;13.03;;;6.07;;
39214;SDS011;24932;51.746;14.334;2022-11-20T12:12:40;18.37;;;9.13;;
39214;SDS011;24932;51.746;14.334;2022-11-20T12:16:40;16.67;;;9.0;;
39214;SDS011;24932;51.746;14.334;2022-11-20T12:20:41;20.2;;;8.8;;
39214;SDS011;24932;51.746;14.334;2022-11-20T12:24:43;19.07;;;9.5;;
39214;SDS011;24932;51.746;14.334;2022-11-20T12:28:44;19.13;;;10.27;;
39214;SDS011;24932;51.746;14.334;2022-11-20T12:32:45;14.47;;;8.43;;
39214;SDS011;24932;51.746;14.334;2022-11-20T12:36:40;16.63;;;8.33;;
39214;SDS011;24932;51.746;14.334;2022-11-20T12:40:41;18.27;;;8.7;;
39214;SDS011;24932;51.746;14.334;2022-11-20T12:44:44;14.0;;;7.73;;
39214;SDS011;24932;51.746;14.334;2022-11-20T12:48:50;15.3;;;7.5;;
39214;SDS011;24932;51.746;14.334;2022-11-20T12:52:42;16.2;;;9.27;;
39214;SDS011;24932;51.746;14.334;2022-11-20T12:56:41;17.13;;;8.4;;
39214;SDS011;24932;51.746;14.334;2022-11-20T13:00:42;16.03;;;8.77;;
39214;SDS011;24932;51.746;14.334;2022-11-20T13:04:46;16.73;;;9.47;;
39214;SDS011;24932;51.746;14.334;2022-11-20T13:08:41;19.77;;;8.8;;
39214;SDS011;24932;51.746;14.334;2022-11-20T13:12:42;16.2;;;8.1;;
39214;SDS011;24932;51.746;14.334;2022-11-20T13:16:41;15.1;;;7.1;;
39214;SDS011;24932;51.746;14.334;2022-11-20T13:20:41;21.23;;;8.63;;
39214;SDS011;24932;51.746;14.334;2022-11-20T13:24:40;17.17;;;7.8;;
39214;SDS011;24932;51.746;14.334;2022-11-20T13:28:40;19.1;;;8.8;;
39214;SDS011;24932;51.746;14.334;2022-11-20T13:32:47;30.47;;;9.67;;
39214;SDS011;24932;51.746;14.334;2022-11-20T13:36:48;17.1;;;8.2;;
39214;SDS011;24932;51.746;14.334;2022-11-20T13:40:50;23.2;;;9.87;;
39214;SDS011;24932;51.746;14.334;2022-11-20T13:44:42;17.37;;;8.57;;
39214;SDS011;24932;51.746;14.334;2022-11-20T13:48:41;15.5;;;8.97;;
39214;SDS011;24932;51.746;14.334;2022-11-20T13:52:42;20.27;;;9.03;;
39214;SDS011;24932;51.746;14.334;2022-11-20T13:56:44;15.13;;;8.6;;
39214;SDS011;24932;51.746;14.334;2022-11-20T14:00:43;18.13;;;8.87;;
39214;SDS011;24932;51.746;14.334;2022-11-20T14:04:42;12.03;;;6.3;;
39214;SDS011;24932;51.746;14.334;2022-11-20T14:08:41;20.17;;;8.9;;
39214;SDS011;24932;51.746;14.334;2022-11-20T14:12:40;15.83;;;8.7;;
39214;SDS011;24932;51.746;14.334;2022-11-20T14:16:40;15.63;;;8.47;;
39214;SDS011;24932;51.746;14.334;2022-11-20T14:20:40;19.6;;;9.13;;
39214;SDS011;24932;51.746;14.334;2022-11-20T14:24:40;17.33;;;6.47;;
39214;SDS011;24932;51.746;14.334;2022-11-20T14:28:40;16.0;;;7.87;;
39214;SDS011;24932;51.746;14.334;2022-11-20T14:32:40;19.47;;;8.07;;
39214;SDS011;24932;51.746;14.334;2022-11-20T14:36:40;15.63;;;7.23;;
39214;SDS011;24932;51.746;14.334;2022-11-20T14:40:39;13.63;;;7.03;;
39214;SDS011;24932;51.746;14.334;2022-11-20T14:44:40;17.13;;;7.87;;
39214;SDS011;24932;51.746;14.334;2022-11-20T14:48:41;16.97;;;8.13;;
39214;SDS011;24932;51.746;14.334;2022-11-20T14:52:49;14.9;;;8.27;;
39214;SDS011;24932;51.746;14.334;2022-11-20T14:56:40;21.77;;;8.5;;
39214;SDS011;24932;51.746;14.334;2022-11-20T15:00:41;16.23;;;8.1;;
39214;SDS011;24932;51.746;14.334;2022-11-20T15:04:44;24.4;;;9.93;;
39214;SDS011;24932;51.746;14.334;2022-11-20T15:08:50;25.73;;;11.33;;
39214;SDS011;24932;51.746;14.334;2022-11-20T15:12:45;19.23;;;9.6;;
39214;SDS011;24932;51.746;14.334;2022-11-20T15:16:40;21.13;;;10.47;;
39214;SDS011;24932;51.746;14.334;2022-11-20T15:20:40;20.67;;;9.63;;
39214;SDS011;24932;51.746;14.334;2022-11-20T15:24:41;17.8;;;9.33;;
39214;SDS011;24932;51.746;14.334;2022-11-20T15:28:41;18.23;;;9.27;;
39214;SDS011;24932;51.746;14.334;2022-11-20T15:32:40;16.97;;;8.83;;
39214;SDS011;24932;51.746;14.334;2022-11-20T15:36:40;22.5;;;10.77;;
39214;SDS011;24932;51.746;14.334;2022-11-20T15:40:40;21.13;;;10.2;;
39214;SDS011;24932;51.746;14.334;2022-11-20T15:44:40;21.53;;;9.67;;
39214;SDS011;24932;51.746;14.334;2022-11-20T15:48:48;16.63;;;9.23;;
39214;SDS011;24932;51.746;14.334;2022-11-20T15:52:42;19.93;;;9.97;;
39214;SDS011;24932;51.746;14.334;2022-11-20T15:56:40;20.37;;;9.53;;
39214;SDS011;24932;51.746;14.334;2022-11-20T16:00:40;23.13;;;10.63;;
39214;SDS011;24932;51.746;14.334;2022-11-20T16:04:40;21.4;;;11.0;;
39214;SDS011;24932;51.746;14.334;2022-11-20T16:08:40;21.67;;;11.37;;
39214;SDS011;24932;51.746;14.334;2022-11-20T16:12:40;20.93;;;10.87;;
39214;SDS011;24932;51.746;14.334;2022-11-20T16:16:40;23.83;;;10.63;;
39214;SDS011;24932;51.746;14.334;2022-11-20T16:20:40;24.1;;;11.83;;
39214;SDS011;24932;51.746;14.334;2022-11-20T16:24:41;26.9;;;12.3;;
39214;SDS011;24932;51.746;14.334;2022-11-20T16:28:40;27.0;;;13.6;;
39214;SDS011;24932;51.746;14.334;2022-11-20T16:32:41;21.97;;;11.63;;
39214;SDS011;24932;51.746;14.334;2022-11-20T16:36:40;26.9;;;12.73;;
39214;SDS011;24932;51.746;14.334;2022-11-20T16:40:40;28.9;;;12.77;;
39214;SDS011;24932;51.746;14.334;2022-11-20T16:44:40;29.5;;;12.57;;
39214;SDS011;24932;51.746;14.334;2022-11-20T16:48:40;34.0;;;14.6;;
39214;SDS011;24932;51.746;14.334;2022-11-20T16:52:40;12.73;;;6.7;;
39214;SDS011;24932;51.746;14.334;2022-11-20T16:56:39;34.5;;;15.23;;
39214;SDS011;24932;51.746;14.334;2022-11-20T17:00:41;30.6;;;14.7;;
39214;SDS011;24932;51.746;14.334;2022-11-20T17:04:40;28.47;;;12.33;;
39214;SDS011;24932;51.746;14.334;2022-11-20T17:08:40;30.0;;;13.5;;
39214;SDS011;24932;51.746;14.334;2022-11-20T17:12:40;23.2;;;11.37;;
39214;SDS011;24932;51.746;14.334;2022-11-20T17:16:40;27.47;;;14.23;;
39214;SDS011;24932;51.746;14.334;2022-11-20T17:20:41;26.83;;;13.77;;
39214;SDS011;24932;51.746;14.334;2022-11-20T17:24:40;29.13;;;13.53;;
39214;SDS011;24932;51.746;14.334;2022-11-20T17:28:40;33.6;;;13.33;;
39214;SDS011;24932;51.746;14.334;2022-11-20T17:32:40;28.37;;;12.47;;
39214;SDS011;24932;51.746;14.334;2022-11-20T17:36:45;27.7;;;13.63;;
39214;SDS011;24932;51.746;14.334;2022-11-20T17:40:40;22.13;;;10.77;;
39214;SDS011;24932;51.746;14.334;2022-11-20T17:44:40;25.03;;;12.9;;
39214;SDS011;24932;51.746;14.334;2022-11-20T17:48:40;30.3;;;13.8;;
39214;SDS011;24932;51.746;14.334;2022-11-20T17:52:40;27.27;;;13.17;;
39214;SDS011;24932;51.746;14.334;2022-11-20T17:56:40;28.9;;;13.53;;
39214;SDS011;24932;51.746;14.334;2022-11-20T18:00:41;22.63;;;12.13;;
39214;SDS011;24932;51.746;14.334;2022-11-20T18:04:40;25.47;;;13.6;;
39214;SDS011;24932;51.746;14.334;2022-11-20T18:08:40;24.87;;;12.3;;
39214;SDS011;24932;51.746;14.334;2022-11-20T18:12:40;25.97;;;12.17;;
39214;SDS011;24932;51.746;14.334;2022-11-20T18:16:41;32.4;;;14.3;;
39214;SDS011;24932;51.746;14.334;2022-11-20T18:20:40;26.13;;;13.0;;
39214;SDS011;24932;51.746;14.334;2022-11-20T18:24:41;23.87;;;11.67;;
39214;SDS011;24932;51.746;14.334;2022-11-20T18:28:40;22.37;;;11.83;;
39214;SDS011;24932;51.746;14.334;2022-11-20T18:32:40;22.13;;;11.23;;
39214;SDS011;24932;51.746;14.334;2022-11-20T18:36:41;22.53;;;10.67;;
39214;SDS011;24932;51.746;14.334;2022-11-20T18:40:40;22.27;;;11.53;;
39214;SDS011;24932;51.746;14.334;2022-11-20T18:44:40;26.67;;;11.23;;
39214;SDS011;24932;51.746;14.334;2022-11-20T18:48:40;21.9;;;11.73;;
39214;SDS011;24932;51.746;14.334;2022-11-20T18:52:41;22.9;;;10.5;;
39214;SDS011;24932;51.746;14.334;2022-11-20T18:56:41;21.3;;;11.57;;
39214;SDS011;24932;51.746;14.334;2022-11-20T19:00:41;23.93;;;12.23;;
39214;SDS011;24932;51.746;14.334;2022-11-20T19:04:40;23.77;;;11.13;;
39214;SDS011;24932;51.746;14.334;2022-11-20T19:08:40;23.1;;;11.5;;
39214;SDS011;24932;51.746;14.334;2022-11-20T19:12:40;28.3;;;12.17;;
39214;SDS011;24932;51.746;14.334;2022-11-20T19:16:40;26.3;;;12.57;;
39214;SDS011;24932;51.746;14.334;2022-11-20T19:20:40;27.77;;;13.47;;
39214;SDS011;24932;51.746;14.334;2022-11-20T19:24:40;28.23;;;11.87;;
39214;SDS011;24932;51.746;14.334;2022-11-20T19:28:40;29.17;;;13.6;;
39214;SDS011;24932;51.746;14.334;2022-11-20T19:32:40;29.83;;;13.73;;
39214;SDS011;24932;51.746;14.334;2022-11-20T19:36:45;29.83;;;14.4;;
39214;SDS011;24932;51.746;14.334;2022-11-20T19:40:40;26.8;;;13.57;;
39214;SDS011;24932;51.746;14.334;2022-11-20T19:44:40;26.6;;;12.93;;
39214;SDS011;24932;51.746;14.334;2022-11-20T19:48:40;26.73;;;13.7;;
39214;SDS011;24932;51.746;14.334;2022-11-20T19:52:40;30.67;;;13.57;;
39214;SDS011;24932;51.746;14.334;2022-11-20T19:56:40;32.63;;;14.4;;
39214;SDS011;24932;51.746;14.334;2022-11-20T20:00:41;30.07;;;14.43;;
39214;SDS011;24932;51.746;14.334;2022-11-20T20:04:40;33.73;;;15.73;;
39214;SDS011;24932;51.746;14.334;2022-11-20T20:08:40;32.9;;;14.47;;
39214;SDS011;24932;51.746;14.334;2022-11-20T20:12:40;26.63;;;13.13;;
39214;SDS011;24932;51.746;14.334;2022-11-20T20:16:40;26.0;;;12.3;;
39214;SDS011;24932;51.746;14.334;2022-11-20T20:20:40;24.2;;;12.97;;
39214;SDS011;24932;51.746;14.334;2022-11-20T20:24:40;25.93;;;12.23;;
39214;SDS011;24932;51.746;14.334;2022-11-20T20:28:40;29.07;;;11.9;;
39214;SDS011;24932;51.746;14.334;2022-11-20T20:32:40;29.33;;;14.07;;
39214;SDS011;24932;51.746;14.334;2022-11-20T20:36:40;23.33;;;11.07;;
39214;SDS011;24932;51.746;14.334;2022-11-20T20:40:45;28.23;;;13.07;;
39214;SDS011;24932;51.746;14.334;2022-11-20T20:44:39;27.5;;;12.07;;
39214;SDS011;24932;51.746;14.334;2022-11-20T20:48:40;27.0;;;11.6;;
39214;SDS011;24932;51.746;14.334;2022-11-20T20:52:40;28.33;;;12.0;;
39214;SDS011;24932;51.746;14.334;2022-11-20T20:56:40;29.2;;;12.03;;
39214;SDS011;24932;51.746;14.334;2022-11-20T21:00:40;33.37;;;13.03;;
39214;SDS011;24932;51.746;14.334;2022-11-20T21:04:41;29.6;;;13.33;;
39214;SDS011;24932;51.746;14.334;2022-11-20T21:08:42;31.87;;;13.73;;
39214;SDS011;24932;51.746;14.334;2022-11-20T21:12:40;33.13;;;14.3;;
39214;SDS011;24932;51.746;14.334;2022-11-20T21:16:40;34.73;;;14.6;;
39214;SDS011;24932;51.746;14.334;2022-11-20T21:20:40;33.03;;;15.27;;
39214;SDS011;24932;51.746;14.334;2022-11-20T21:24:40;29.5;;;13.23;;
39214;SDS011;24932;51.746;14.334;2022-11-20T21:28:40;33.63;;;14.6;;
39214;SDS011;24932;51.746;14.334;2022-11-20T21:32:40;27.3;;;13.37;;
39214;SDS011;24932;51.746;14.334;2022-11-20T21:36:40;25.87;;;13.5;;
39214;SDS011;24932;51.746;14.334;2022-11-20T21:40:40;37.47;;;15.23;;
39214;SDS011;24932;51.746;14.334;2022-11-20T21:44:40;33.03;;;13.03;;
39214;SDS011;24932;51.746;14.334;2022-11-20T21:48:41;29.33;;;15.17;;
39214;SDS011;24932;51.746;14.334;2022-11-20T21:52:40;33.07;;;14.83;;
39214;SDS011;24932;51.746;14.334;2022-11-20T21:56:40;30.37;;;14.93;;
39214;SDS011;24932;51.746;14.334;2022-11-20T22:00:40;32.23;;;13.6;;
39214;SDS011;24932;51.746;14.334;2022-11-20T22:04:41;33.8;;;13.9;;
39214;SDS011;24932;51.746;14.334;2022-11-20T22:08:40;26.0;;;12.37;;
39214;SDS011;24932;51.746;14.334;2022-11-20T22:12:40;32.17;;;14.27;;
39214;SDS011;24932;51.746;14.334;2022-11-20T22:16:40;31.33;;;13.2;;
39214;SDS011;24932;51.746;14.334;2022-11-20T22:20:40;31.43;;;12.7;;
39214;SDS011;24932;51.746;14.334;2022-11-20T22:24:40;30.33;;;13.1;;
39214;SDS011;24932;51.746;14.334;2022-11-20T22:28:39;28.53;;;12.83;;
39214;SDS011;24932;51.746;14.334;2022-11-20T22:32:40;31.27;;;13.63;;
39214;SDS011;24932;51.746;14.334;2022-11-20T22:36:41;36.97;;;14.13;;
39214;SDS011;24932;51.746;14.334;2022-11-20T22:40:40;31.6;;;14.07;;
39214;SDS011;24932;51.746;14.334;2022-11-20T22:44:41;35.23;;;13.4;;
39214;SDS011;24932;51.746;14.334;2022-11-20T22:48:41;31.9;;;13.73;;
39214;SDS011;24932;51.746;14.334;2022-11-20T22:52:40;35.1;;;13.67;;
39214;SDS011;24932;51.746;14.334;2022-11-20T22:56:40;26.03;;;12.2;;
39214;SDS011;24932;51.746;14.334;2022-11-20T23:00:41;25.03;;;12.17;;
39214;SDS011;24932;51.746;14.334;2022-11-20T23:04:40;29.87;;;14.47;;
39214;SDS011;24932;51.746;14.334;2022-11-20T23:08:40;35.1;;;14.4;;
39214;SDS011;24932;51.746;14.334;2022-11-20T23:12:40;38.63;;;14.63;;
39214;SDS011;24932;51.746;14.334;2022-11-20T23:16:40;31.4;;;13.9;;
39214;SDS011;24932;51.746;14.334;2022-11-20T23:20:40;35.4;;;14.97;;